Time;durP1;ratioP1;P1;durP2;ratioP2;P2;SDS_P1;SDS_P2;PMS_P1;PMS_P2;Temp;Humidity;BMP_temperature;BMP_pressure;BME280_temperature;BME280_humidity;BME280_pressure;Samples;Min_cycle;Max_cycle;Signal;HPM_P1;HPM_P2
2022/07/04 00:00:04;;;;;;;11.02;4.18;;;;;;;14.54;93.67;101960.72;4968757;28;20054;-64
2022/07/04 00:02:30;;;;;;;9.13;4.60;;;;;;;14.50;93.84;101954.66;4968841;28;20125;-64
2022/07/04 00:04:55;;;;;;;7.25;4.43;;;;;;;14.46;94.52;101954.94;4968767;28;20045;-64
2022/07/04 00:07:21;;;;;;;10.57;4.18;;;;;;;14.42;94.46;101954.25;4969389;28;20046;-63
2022/07/04 00:09:46;;;;;;;7.75;4.72;;;;;;;14.41;94.70;101949.84;4969210;28;20046;-64
2022/07/04 00:12:12;;;;;;;9.27;4.40;;;;;;;14.25;95.21;101952.59;4968429;28;20053;-64
2022/07/04 00:14:37;;;;;;;9.18;4.40;;;;;;;14.17;95.01;101959.41;4968653;28;20125;-63
2022/07/04 00:17:03;;;;;;;11.88;4.60;;;;;;;14.10;95.10;101950.84;4974646;28;20042;-64
2022/07/04 00:19:28;;;;;;;8.45;4.57;;;;;;;14.16;94.91;101955.00;4988750;28;20053;-64
2022/07/04 00:21:54;;;;;;;7.82;4.28;;;;;;;14.19;94.84;101952.09;4971158;28;20342;-63
2022/07/04 00:24:19;;;;;;;8.80;4.55;;;;;;;14.22;94.70;101966.19;4988808;28;20045;-64
2022/07/04 00:26:45;;;;;;;14.65;5.63;;;;;;;14.20;95.21;101957.38;4990284;28;20045;-64
2022/07/04 00:29:10;;;;;;;6.05;4.10;;;;;;;14.20;95.08;101961.88;4972122;28;20046;-64
2022/07/04 00:31:35;;;;;;;11.18;4.60;;;;;;;14.14;95.01;101956.88;4989735;28;20060;-65
2022/07/04 00:34:02;;;;;;;9.80;5.22;;;;;;;14.13;95.25;101953.34;4987470;28;20034;-63
2022/07/04 00:36:27;;;;;;;6.25;3.88;;;;;;;14.07;95.33;101950.19;4987987;28;20042;-64
2022/07/04 00:38:52;;;;;;;10.15;4.68;;;;;;;14.08;95.32;101954.59;4969863;28;20077;-64
2022/07/04 00:41:18;;;;;;;9.15;5.03;;;;;;;13.91;95.96;101950.25;4972146;28;20120;-64
2022/07/04 00:43:44;;;;;;;8.40;4.53;;;;;;;13.95;96.17;101955.28;4969177;28;20149;-64
2022/07/04 00:46:09;;;;;;;6.15;5.03;;;;;;;13.92;95.90;101952.81;4968989;28;20034;-64
2022/07/04 00:48:34;;;;;;;16.58;5.22;;;;;;;13.86;95.81;101952.34;4969506;28;20487;-64
2022/07/04 00:51:00;;;;;;;9.57;4.72;;;;;;;13.71;96.07;101952.28;4968698;28;20608;-64
2022/07/04 00:53:26;;;;;;;8.30;4.35;;;;;;;13.56;96.00;101950.50;4968477;28;20124;-64
2022/07/04 00:55:52;;;;;;;4.03;3.50;;;;;;;13.15;95.33;101950.13;4965740;28;20061;-64
2022/07/04 00:58:22;;;;;;;5.68;4.28;;;;;;;13.11;96.13;101956.63;4986025;28;20078;-63
2022/07/04 01:00:49;;;;;;;9.98;4.93;;;;;;;12.87;98.46;101953.50;4988679;28;20836;-63
2022/07/04 01:03:15;;;;;;;10.82;5.18;;;;;;;12.96;97.97;101953.84;4990305;28;20492;-64
2022/07/04 01:05:41;;;;;;;9.57;5.72;;;;;;;13.00;98.30;101957.19;4992805;28;20050;-64
2022/07/04 01:08:07;;;;;;;5.28;4.53;;;;;;;13.11;97.71;101954.81;4992883;28;20046;-63
2022/07/04 01:10:33;;;;;;;10.20;4.93;;;;;;;13.13;97.80;101952.91;4993694;28;20048;-64
2022/07/04 01:12:58;;;;;;;7.97;4.65;;;;;;;13.25;97.12;101953.19;4992290;28;20068;-64
2022/07/04 01:15:24;;;;;;;15.30;6.18;;;;;;;13.28;98.22;101951.19;4991876;28;20048;-63
2022/07/04 01:17:50;;;;;;;10.02;5.03;;;;;;;13.25;97.99;101954.03;4979158;28;20472;-64
2022/07/04 01:20:16;;;;;;;13.20;6.47;;;;;;;13.30;98.04;101957.31;4972371;28;20762;-63
2022/07/04 01:22:42;;;;;;;10.10;5.75;;;;;;;13.29;98.70;101952.94;4974114;28;20038;-63
2022/07/04 01:25:08;;;;;;;12.35;5.22;;;;;;;13.14;98.73;101949.25;4972614;28;20085;-64
2022/07/04 01:27:34;;;;;;;11.40;5.55;;;;;;;13.23;98.50;101947.06;4972138;28;20042;-63
2022/07/04 01:30:00;;;;;;;10.75;5.80;;;;;;;13.07;98.52;101942.53;4972149;28;20038;-63
2022/07/04 01:32:26;;;;;;;9.98;4.55;;;;;;;12.84;98.10;101935.78;4972200;28;20038;-63
2022/07/04 01:34:51;;;;;;;9.77;4.80;;;;;;;12.85;96.95;101939.31;4953532;28;20050;-64
2022/07/04 01:37:16;;;;;;;9.05;4.45;;;;;;;12.86;98.14;101941.06;4970630;28;20665;-63
2022/07/04 01:39:42;;;;;;;10.40;4.50;;;;;;;12.62;97.73;101933.44;4956264;28;20041;-63
2022/07/04 01:42:08;;;;;;;6.78;4.10;;;;;;;12.49;97.57;101929.69;4990861;28;20046;-64
2022/07/04 01:44:34;;;;;;;12.20;4.72;;;;;;;12.45;100.00;101933.50;4992058;28;20030;-64
2022/07/04 01:46:59;;;;;;;7.03;4.10;;;;;;;12.62;100.00;101941.47;4990549;28;20091;-64
2022/07/04 01:49:25;;;;;;;6.60;3.75;;;;;;;12.34;99.12;101931.34;4991058;28;20049;-64
2022/07/04 01:51:50;;;;;;;8.32;4.00;;;;;;;12.21;99.52;101929.44;4991276;28;20046;-64
2022/07/04 01:54:16;;;;;;;8.77;4.75;;;;;;;11.96;100.00;101927.19;4991434;28;20041;-64
2022/07/04 01:56:42;;;;;;;4.80;4.25;;;;;;;11.89;100.00;101921.25;4993134;28;20034;-63
2022/07/04 01:59:08;;;;;;;11.23;5.53;;;;;;;11.82;100.00;101927.88;4973716;28;20567;-64
2022/07/04 02:01:34;;;;;;;11.00;5.78;;;;;;;11.68;100.00;101934.75;4992272;28;20042;-63
2022/07/04 02:04:02;;;;;;;6.78;4.82;;;;;;;11.78;100.00;101926.28;4991066;28;20038;-64
2022/07/04 02:06:29;;;;;;;9.95;5.00;;;;;;;11.71;100.00;101931.06;4991545;28;20049;-64
2022/07/04 02:14:23;;;;;;;6.95;4.82;;;;;;;11.74;99.94;101936.25;4989899;28;20045;-63
2022/07/04 02:16:49;;;;;;;9.27;4.45;;;;;;;11.74;99.95;101941.59;4990137;28;20784;-64
2022/07/04 02:19:14;;;;;;;6.55;4.60;;;;;;;11.79;99.66;101933.34;4989776;28;20204;-63
2022/07/04 02:21:39;;;;;;;7.68;4.53;;;;;;;11.81;99.45;101932.34;4990102;28;20053;-64
2022/07/04 02:24:05;;;;;;;9.90;5.10;;;;;;;11.95;100.00;101929.00;4990832;28;20151;-63
2022/07/04 02:26:31;;;;;;;7.00;4.75;;;;;;;11.94;100.00;101924.56;4991037;28;20037;-63
2022/07/04 02:28:56;;;;;;;8.30;5.15;;;;;;;11.98;100.00;101920.78;4991638;28;20073;-64
2022/07/04 02:31:22;;;;;;;7.20;4.90;;;;;;;11.92;100.00;101923.78;4990363;28;20068;-64
2022/07/04 02:33:48;;;;;;;5.18;3.38;;;;;;;11.77;98.87;101920.06;4991430;28;20446;-64
2022/07/04 02:36:14;;;;;;;5.05;3.83;;;;;;;11.49;98.57;101925.06;4990555;28;20470;-63
2022/07/04 02:38:39;;;;;;;3.72;3.28;;;;;;;11.43;97.85;101917.34;4990869;28;20076;-63
2022/07/04 02:41:05;;;;;;;5.57;3.88;;;;;;;11.41;97.61;101915.63;4989510;28;20104;-64
2022/07/04 02:43:30;;;;;;;5.70;4.00;;;;;;;11.60;98.44;101922.75;4991190;28;20062;-64
2022/07/04 02:45:55;;;;;;;8.43;5.30;;;;;;;11.61;100.00;101925.31;4973071;28;20072;-64
2022/07/04 02:48:21;;;;;;;6.75;4.57;;;;;;;11.78;100.00;101918.25;4990632;28;20056;-64
2022/07/04 02:50:46;;;;;;;6.50;5.20;;;;;;;11.79;100.00;101925.31;4990720;28;20046;-64
2022/07/04 02:53:12;;;;;;;8.98;5.22;;;;;;;11.72;100.00;101930.13;4990253;28;20053;-63
2022/07/04 02:55:37;;;;;;;6.80;4.82;;;;;;;11.79;100.00;101925.31;4990721;28;20119;-63
2022/07/04 02:58:03;;;;;;;12.02;5.25;;;;;;;11.87;100.00;101931.19;4989555;28;20136;-63
2022/07/04 03:00:28;;;;;;;8.32;4.80;;;;;;;11.95;100.00;101923.66;4971629;28;20042;-64
2022/07/04 03:02:54;;;;;;;15.07;5.75;;;;;;;11.71;100.00;101930.22;4989585;28;20056;-65
2022/07/04 03:05:19;;;;;;;10.02;5.55;;;;;;;11.85;100.00;101923.25;4990165;28;20040;-64
2022/07/04 03:07:45;;;;;;;12.52;5.93;;;;;;;11.91;100.00;101919.41;4972405;28;20049;-64
2022/07/04 03:10:11;;;;;;;11.95;6.07;;;;;;;11.90;100.00;101920.34;4990801;28;20410;-64
2022/07/04 03:12:37;;;;;;;7.53;5.30;;;;;;;11.92;100.00;101919.31;4991459;28;20044;-63
2022/07/04 03:15:02;;;;;;;9.93;6.45;;;;;;;11.85;100.00;101917.06;4989342;28;20124;-66
2022/07/04 03:17:30;;;;;;;6.55;4.85;;;;;;;11.87;100.00;101921.34;4980261;28;20244;-64
2022/07/04 03:19:58;;;;;;;5.03;4.13;;;;;;;11.60;100.00;101934.28;4969358;28;20047;-64
2022/07/04 03:22:24;;;;;;;6.95;4.03;;;;;;;11.47;99.13;101933.16;4970662;28;20151;-64
2022/07/04 03:24:49;;;;;;;6.78;3.70;;;;;;;11.47;97.79;101940.31;4970021;28;20069;-63
2022/07/04 03:27:15;;;;;;;4.10;3.70;;;;;;;11.48;98.26;101945.56;4968221;28;20030;-63
2022/07/04 03:29:40;;;;;;;7.60;5.07;;;;;;;11.53;99.75;101940.88;4951698;28;20057;-63
2022/07/04 03:32:06;;;;;;;6.70;4.80;;;;;;;11.71;99.91;101946.25;4969341;28;20038;-64
2022/07/04 03:34:31;;;;;;;10.95;5.28;;;;;;;11.96;97.78;101951.25;4969584;28;20046;-62
2022/07/04 03:36:57;;;;;;;6.40;4.57;;;;;;;12.04;96.74;101944.53;4969373;28;20042;-63
2022/07/04 03:39:22;;;;;;;7.85;3.92;;;;;;;12.00;97.30;101955.47;4968781;28;20042;-63
2022/07/04 03:41:48;;;;;;;6.90;5.03;;;;;;;12.16;97.84;101954.59;4987826;28;20044;-63
2022/07/04 03:44:14;;;;;;;8.90;4.82;;;;;;;12.14;99.27;101952.94;4988711;28;20117;-64
2022/07/04 03:46:39;;;;;;;6.03;4.72;;;;;;;12.29;98.14;101954.81;4989185;28;20793;-64
2022/07/04 03:49:05;;;;;;;11.75;6.70;;;;;;;12.19;100.00;101958.91;4988234;28;20089;-64
2022/07/04 03:51:31;;;;;;;14.82;7.25;;;;;;;12.19;100.00;101957.09;4988856;28;20038;-64
2022/07/04 03:53:56;;;;;;;12.65;7.60;;;;;;;12.38;100.00;101956.13;4988459;28;20050;-64
2022/07/04 03:56:22;;;;;;;14.93;8.32;;;;;;;12.32;100.00;101957.34;4988339;28;20481;-64
2022/07/04 03:58:50;;;;;;;20.45;8.60;;;;;;;12.35;100.00;101964.31;4986747;28;20073;-64
2022/07/04 04:01:17;;;;;;;11.32;8.18;;;;;;;12.37;100.00;101970.47;4986484;28;20038;-64
2022/07/04 04:06:26;;;;;;;13.85;8.57;;;;;;;12.54;100.00;101975.78;4987229;28;20046;-63
2022/07/04 04:08:52;;;;;;;14.50;7.90;;;;;;;12.61;100.00;101979.00;4986000;28;20065;-63
2022/07/04 04:11:17;;;;;;;14.93;8.57;;;;;;;12.67;100.00;101976.84;4984686;28;20052;-63
2022/07/04 04:13:43;;;;;;;16.33;9.23;;;;;;;12.74;100.00;101985.41;4968485;28;20100;-64
2022/07/04 04:16:09;;;;;;;18.73;9.77;;;;;;;12.80;100.00;101993.13;4986198;28;20034;-64
2022/07/04 04:18:34;;;;;;;17.63;10.10;;;;;;;13.00;100.00;101989.34;4966747;28;20061;-64
2022/07/04 04:21:00;;;;;;;20.13;10.80;;;;;;;13.02;100.00;101998.16;4966172;28;20034;-64
2022/07/04 04:23:25;;;;;;;18.50;10.38;;;;;;;13.13;100.00;101990.41;4967514;28;20038;-64
2022/07/04 04:25:50;;;;;;;14.75;9.38;;;;;;;13.18;100.00;101995.50;4967442;28;20038;-64
2022/07/04 04:28:16;;;;;;;15.07;9.13;;;;;;;13.35;100.00;102000.78;4966711;28;20108;-64
2022/07/04 04:30:41;;;;;;;18.40;9.40;;;;;;;13.44;100.00;102000.28;4968406;28;20046;-64
2022/07/04 04:33:07;;;;;;;21.35;10.20;;;;;;;13.50;100.00;102000.88;4966561;28;20160;-64
2022/07/04 04:35:32;;;;;;;22.27;11.57;;;;;;;13.56;100.00;101996.06;4967625;28;20047;-64
2022/07/04 04:37:58;;;;;;;20.75;12.60;;;;;;;13.57;100.00;102004.97;4968522;28;20042;-64
2022/07/04 04:40:23;;;;;;;20.17;11.68;;;;;;;13.91;100.00;102001.19;4978706;28;20053;-65
2022/07/04 04:42:49;;;;;;;21.58;12.27;;;;;;;13.97;100.00;101998.13;4990501;28;20038;-65
2022/07/04 04:45:14;;;;;;;24.85;14.10;;;;;;;14.07;100.00;101993.94;4989547;28;20531;-64
2022/07/04 04:47:40;;;;;;;23.02;14.40;;;;;;;14.27;100.00;101986.53;4990221;28;20101;-64
2022/07/04 04:50:10;;;;;;;23.45;12.85;;;;;;;14.35;100.00;101994.97;4989540;28;20184;-64
2022/07/04 04:52:35;;;;;;;20.90;13.20;;;;;;;14.32;100.00;102009.44;4989941;28;20046;-64
2022/07/04 04:55:01;;;;;;;24.70;12.55;;;;;;;14.45;100.00;102004.19;4988821;28;20185;-64
2022/07/04 04:57:26;;;;;;;21.65;11.90;;;;;;;15.35;97.86;101997.66;4990822;28;20034;-65
2022/07/04 04:59:52;;;;;;;17.08;10.95;;;;;;;17.15;88.49;101984.41;4990262;28;20720;-64
2022/07/04 05:02:17;;;;;;;20.33;10.13;;;;;;;17.66;84.18;101984.22;4990170;28;20797;-65
2022/07/04 05:04:43;;;;;;;13.15;8.20;;;;;;;18.58;79.51;101976.19;4991137;28;20596;-65
2022/07/04 05:07:08;;;;;;;15.38;8.55;;;;;;;19.57;75.77;101978.06;4989588;28;20529;-64
2022/07/04 05:09:34;;;;;;;13.88;8.35;;;;;;;20.26;71.90;101963.25;4988564;28;20038;-64
2022/07/04 05:11:59;;;;;;;18.75;8.55;;;;;;;20.30;71.83;101965.56;4992668;28;20084;-64
2022/07/04 05:14:25;;;;;;;13.25;6.68;;;;;;;20.15;71.44;101962.34;4993134;28;20512;-65
2022/07/04 05:16:50;;;;;;;14.07;8.35;;;;;;;19.78;74.04;101961.94;4987075;28;20372;-65
2022/07/04 05:19:16;;;;;;;11.57;7.35;;;;;;;19.97;72.55;101960.34;4969167;28;20150;-65
2022/07/04 05:21:41;;;;;;;9.27;6.97;;;;;;;19.96;73.13;101964.03;4968947;28;20046;-65
2022/07/04 05:24:07;;;;;;;9.75;6.55;;;;;;;19.42;74.73;101968.50;4968508;28;20057;-65
2022/07/04 05:26:33;;;;;;;12.57;7.75;;;;;;;19.52;73.61;101964.06;4973164;28;20143;-65
2022/07/04 05:28:58;;;;;;;12.75;6.68;;;;;;;19.64;71.90;101967.63;4972435;28;20069;-64
2022/07/04 05:31:24;;;;;;;12.73;6.57;;;;;;;20.36;70.81;101959.63;4972724;28;20042;-64
2022/07/04 05:33:52;;;;;;;12.85;6.20;;;;;;;20.63;69.52;101959.09;4970631;28;20034;-65
2022/07/04 05:36:17;;;;;;;11.48;6.25;;;;;;;20.37;69.95;101963.19;4969331;28;20050;-65
2022/07/04 05:38:43;;;;;;;11.20;5.38;;;;;;;20.76;69.08;101961.56;4970022;28;20046;-65
2022/07/04 05:41:08;;;;;;;7.25;5.22;;;;;;;20.51;70.29;101965.59;4984249;28;20506;-64
2022/07/04 05:43:33;;;;;;;7.90;4.40;;;;;;;20.63;68.89;101969.06;4990926;28;20038;-65
2022/07/04 05:45:59;;;;;;;8.13;4.55;;;;;;;21.29;67.98;101966.75;4972809;28;20096;-64
2022/07/04 05:48:24;;;;;;;9.38;4.18;;;;;;;21.06;67.17;101965.25;4993667;28;20054;-65
2022/07/04 05:50:50;;;;;;;8.02;4.47;;;;;;;21.36;67.47;101973.34;4992317;28;20143;-65
2022/07/04 05:53:15;;;;;;;5.72;3.88;;;;;;;21.73;66.46;101981.69;4991854;28;20333;-64
2022/07/04 05:55:42;;;;;;;13.38;4.05;;;;;;;20.99;67.49;101983.94;4989079;28;20037;-65
2022/07/04 05:58:07;;;;;;;9.95;4.05;;;;;;;21.46;64.88;101985.09;4987649;28;20286;-65
2022/07/04 06:00:32;;;;;;;10.50;4.07;;;;;;;21.71;65.01;101982.84;4990650;28;20052;-65
2022/07/04 06:02:58;;;;;;;5.65;3.75;;;;;;;21.97;64.30;101983.13;4990441;28;20038;-65
2022/07/04 06:05:23;;;;;;;8.52;3.42;;;;;;;21.59;65.09;101983.97;4990416;28;20037;-65
2022/07/04 06:07:50;;;;;;;6.80;3.53;;;;;;;21.61;65.42;101987.41;4990262;28;20813;-64
2022/07/04 06:10:15;;;;;;;11.40;3.65;;;;;;;21.14;67.00;101989.84;4989868;28;20041;-64
2022/07/04 06:12:41;;;;;;;7.28;3.75;;;;;;;21.92;64.69;101978.13;4990950;28;20049;-64
2022/07/04 06:15:07;;;;;;;7.38;4.13;;;;;;;21.79;64.09;101980.28;4990032;28;20417;-63
2022/07/04 06:17:32;;;;;;;7.35;4.00;;;;;;;21.51;66.43;101989.25;4990274;28;20045;-64
2022/07/04 06:19:58;;;;;;;9.60;4.18;;;;;;;22.09;64.76;101982.00;4990893;28;20782;-65
2022/07/04 06:22:23;;;;;;;12.85;3.67;;;;;;;22.41;62.07;101980.81;4990436;28;20038;-64
2022/07/04 06:24:49;;;;;;;9.07;3.72;;;;;;;22.51;62.09;101987.09;4990636;28;20056;-65
2022/07/04 06:27:14;;;;;;;9.02;4.68;;;;;;;21.30;64.27;101986.59;4988646;28;20041;-65
2022/07/04 06:29:40;;;;;;;8.65;4.38;;;;;;;21.99;65.05;101983.84;4990925;28;20364;-64
2022/07/04 06:32:06;;;;;;;9.60;4.95;;;;;;;22.06;63.17;101995.00;4989122;28;20038;-65
2022/07/04 06:37:15;;;;;;;8.98;4.50;;;;;;;22.25;63.71;101995.00;4988851;28;20092;-65
2022/07/04 06:39:41;;;;;;;10.52;4.82;;;;;;;22.82;63.38;101998.56;4972229;28;20049;-65
2022/07/04 06:42:06;;;;;;;9.07;5.05;;;;;;;23.57;60.13;101999.34;4989376;28;20769;-64
2022/07/04 06:44:32;;;;;;;11.30;4.75;;;;;;;22.52;61.10;101990.66;4991079;28;20746;-64
2022/07/04 06:46:57;;;;;;;8.77;4.88;;;;;;;22.38;62.20;101994.69;4989204;28;20034;-65
2022/07/04 06:49:23;;;;;;;11.80;5.22;;;;;;;22.00;63.02;101995.56;4989711;28;20099;-65
2022/07/04 06:51:48;;;;;;;6.90;4.43;;;;;;;20.41;68.06;102002.56;4989083;28;20092;-65
2022/07/04 06:54:14;;;;;;;13.02;5.32;;;;;;;20.88;66.48;101998.47;4989025;28;20052;-65
2022/07/04 06:56:39;;;;;;;7.15;4.25;;;;;;;21.62;65.19;102008.97;4989453;28;20045;-65
2022/07/04 06:59:05;;;;;;;8.63;4.50;;;;;;;21.27;65.36;102001.28;4988782;28;20038;-65
2022/07/04 07:01:30;;;;;;;9.05;4.90;;;;;;;21.55;64.33;101990.69;4989536;28;20633;-64
2022/07/04 07:03:56;;;;;;;10.50;4.50;;;;;;;22.25;62.61;101992.28;4990162;28;20073;-65
2022/07/04 07:06:23;;;;;;;13.85;5.20;;;;;;;22.60;62.20;101994.34;4988054;28;20057;-65
2022/07/04 07:08:49;;;;;;;7.25;4.75;;;;;;;23.03;60.67;101989.34;4988870;28;20045;-65
2022/07/04 07:11:18;;;;;;;9.38;5.03;;;;;;;23.33;62.10;101975.44;4988521;28;20041;-65
2022/07/04 07:13:46;;;;;;;8.63;4.80;;;;;;;22.30;61.67;101975.56;4988890;28;20053;-65
2022/07/04 07:16:13;;;;;;;5.43;4.60;;;;;;;21.32;64.35;101971.06;4970682;28;20049;-64
2022/07/04 07:18:38;;;;;;;9.98;4.90;;;;;;;22.31;61.28;101979.97;4989227;28;20145;-65
2022/07/04 07:21:04;;;;;;;7.60;4.50;;;;;;;22.54;62.48;101975.03;4987390;28;20030;-64
2022/07/04 07:23:29;;;;;;;8.10;4.75;;;;;;;23.19;58.91;101984.09;4971970;28;20085;-64
2022/07/04 07:25:55;;;;;;;8.65;4.90;;;;;;;23.18;61.37;101982.41;4989126;28;20068;-64
2022/07/04 07:28:21;;;;;;;8.38;5.20;;;;;;;23.08;60.97;101978.88;4989487;28;20037;-64
2022/07/04 07:30:46;;;;;;;11.07;4.35;;;;;;;22.96;60.04;101983.66;4989319;28;20969;-64
2022/07/04 07:33:12;;;;;;;10.20;4.95;;;;;;;23.33;57.84;101978.16;4988194;28;20042;-64
2022/07/04 07:35:38;;;;;;;8.32;4.40;;;;;;;23.16;60.51;101978.97;4988685;28;20054;-63
2022/07/04 07:38:04;;;;;;;7.38;4.28;;;;;;;23.96;57.83;101978.16;4987578;28;20144;-64
2022/07/04 07:40:29;;;;;;;9.32;4.60;;;;;;;24.18;57.05;101974.06;4989113;28;20037;-65
2022/07/04 07:42:55;;;;;;;7.95;4.20;;;;;;;23.32;59.35;101989.19;4989158;28;20038;-65
2022/07/04 07:45:21;;;;;;;12.13;5.18;;;;;;;23.02;60.50;101980.34;4988675;28;20052;-65
2022/07/04 07:47:46;;;;;;;13.18;4.50;;;;;;;23.73;57.68;101972.31;4988814;28;20084;-64
2022/07/04 07:50:12;;;;;;;10.27;4.90;;;;;;;23.96;59.61;101971.84;4989024;28;20049;-64
2022/07/04 07:52:38;;;;;;;11.75;5.18;;;;;;;24.75;56.14;101963.56;4987687;28;20042;-64
2022/07/04 07:55:04;;;;;;;15.02;4.90;;;;;;;24.10;55.83;101963.13;4988262;28;20038;-64
2022/07/04 07:57:29;;;;;;;8.93;4.18;;;;;;;24.74;56.04;101969.16;4987323;28;20084;-65
2022/07/04 07:59:55;;;;;;;9.30;4.10;;;;;;;24.73;54.75;101948.38;4987991;28;20050;-65
2022/07/04 08:04:34;;;;;;;9.63;3.92;;;;;;;24.90;55.33;101946.56;4986570;28;20056;-66
2022/07/04 08:05:07;;;;;;;10.88;3.80;;;;;;;24.45;55.64;101945.84;4986695;28;20103;-65
2022/07/04 08:07:33;;;;;;;8.80;3.78;;;;;;;23.90;56.02;101956.13;4988183;28;20042;-65
2022/07/04 08:09:59;;;;;;;11.00;4.72;;;;;;;24.77;57.28;101957.94;4988733;28;20172;-65
2022/07/04 08:12:24;;;;;;;9.63;3.97;;;;;;;25.12;56.81;101951.47;4987365;28;20038;-65
2022/07/04 08:14:50;;;;;;;10.70;3.95;;;;;;;24.66;55.71;101952.78;4989110;28;20521;-65
2022/07/04 08:17:15;;;;;;;13.05;3.78;;;;;;;24.10;58.10;101951.31;4988181;28;20038;-65
2022/07/04 08:19:40;;;;;;;9.38;4.82;;;;;;;23.37;58.51;101968.69;4988491;28;20041;-65
2022/07/04 08:22:06;;;;;;;8.75;4.32;;;;;;;24.36;56.82;101954.97;4987520;28;20042;-66
2022/07/04 08:24:31;;;;;;;10.13;4.00;;;;;;;24.47;56.42;101960.16;4989205;28;20050;-66
2022/07/04 08:26:57;;;;;;;11.65;4.13;;;;;;;24.59;55.61;101955.28;4988627;28;20050;-64
2022/07/04 08:29:22;;;;;;;8.82;3.75;;;;;;;25.06;56.20;101960.28;4988526;28;20143;-64
2022/07/04 08:31:48;;;;;;;7.45;3.95;;;;;;;26.18;52.86;101968.03;4988304;28;20056;-63
2022/07/04 08:34:14;;;;;;;10.90;4.45;;;;;;;25.97;53.20;101960.34;4987279;28;20049;-65
2022/07/04 08:36:39;;;;;;;11.68;3.40;;;;;;;24.97;53.90;101972.19;4987716;28;20116;-64
2022/07/04 08:39:05;;;;;;;8.48;3.45;;;;;;;25.46;53.73;101972.41;4989391;28;20474;-65
2022/07/04 08:41:40;;;;;;;12.13;3.63;;;;;;;24.34;56.63;101978.78;4971453;28;20832;-63
2022/07/04 08:44:11;;;;;;;9.93;3.67;;;;;;;24.10;57.40;101971.28;4988345;28;20212;-65
2022/07/04 08:46:41;;;;;;;10.02;3.08;;;;;;;24.78;54.69;101974.13;4987807;28;20052;-64
2022/07/04 08:49:23;;;;;;;6.05;2.97;;;;;;;24.95;57.16;101979.66;4989692;28;20034;-64
2022/07/04 08:52:00;;;;;;;11.95;3.72;;;;;;;24.58;56.54;101983.56;4991045;28;20041;-64
2022/07/04 08:59:55;;;;;;;10.10;2.88;;;;;;;25.47;53.71;101974.09;4990773;28;20099;-64
2022/07/04 09:02:22;;;;;;;7.90;2.72;;;;;;;25.78;52.45;101982.53;4988651;28;20065;-64
2022/07/04 09:04:50;;;;;;;10.88;2.90;;;;;;;24.86;55.44;101981.53;4964377;28;20038;-65
2022/07/04 09:07:15;;;;;;;7.25;3.20;;;;;;;24.68;55.11;101986.19;4982031;28;20048;-66
2022/07/04 09:09:41;;;;;;;10.15;3.33;;;;;;;23.77;57.83;101987.34;4972697;28;20031;-65
2022/07/04 09:12:08;;;;;;;9.88;3.30;;;;;;;23.85;59.11;101985.72;4967321;28;20038;-66
2022/07/04 09:14:34;;;;;;;11.88;3.53;;;;;;;23.56;58.98;101988.63;4969644;28;20488;-65
2022/07/04 09:17:00;;;;;;;6.72;3.08;;;;;;;23.23;59.00;101982.78;4967886;28;20045;-65
2022/07/04 09:19:25;;;;;;;8.15;3.15;;;;;;;24.21;58.87;101979.22;4984778;28;20605;-64
2022/07/04 09:21:51;;;;;;;10.43;2.88;;;;;;;24.74;57.07;101978.19;4974434;28;20366;-64
2022/07/04 09:24:41;;;;;;;11.55;3.80;;;;;;;25.05;55.31;101983.13;4962737;28;20046;-65
2022/07/04 09:27:06;;;;;;;7.28;2.60;;;;;;;24.39;56.72;101981.06;4985539;28;20489;-65
2022/07/04 09:29:32;;;;;;;9.02;2.88;;;;;;;25.27;53.97;101973.53;4971276;28;20042;-64
2022/07/04 09:31:57;;;;;;;9.32;2.65;;;;;;;25.02;54.33;101980.75;4980676;28;20486;-65
2022/07/04 09:34:23;;;;;;;8.27;2.92;;;;;;;25.63;56.25;101981.47;4989948;28;20435;-65
2022/07/04 09:36:55;;;;;;;7.90;2.67;;;;;;;24.88;56.05;101967.72;4990146;28;20072;-64
2022/07/04 09:39:21;;;;;;;4.93;2.47;;;;;;;24.88;53.11;101973.16;4988637;28;20058;-65
2022/07/04 09:42:00;;;;;;;4.63;1.88;;;;;;;25.75;51.75;101969.19;4987589;28;20661;-65
2022/07/04 09:44:48;;;;;;;8.52;2.50;;;;;;;26.13;50.59;101973.16;4987451;28;20160;-65
2022/07/04 09:47:27;;;;;;;6.90;2.35;;;;;;;25.82;52.73;101982.03;4987142;28;20125;-65
2022/07/04 09:50:06;;;;;;;6.88;2.72;;;;;;;25.77;50.72;101978.09;4953128;28;20084;-65
2022/07/04 09:52:43;;;;;;;6.10;2.40;;;;;;;25.85;50.07;101961.69;4968497;28;20165;-64
2022/07/04 09:55:08;;;;;;;6.13;2.60;;;;;;;27.21;52.87;101965.41;4987464;28;20042;-65
2022/07/04 09:57:34;;;;;;;5.95;2.30;;;;;;;26.48;49.04;101971.09;4970760;28;20045;-65
2022/07/04 10:00:24;;;;;;;4.93;2.10;;;;;;;25.07;53.12;101970.22;4968962;28;20048;-66
2022/07/04 10:02:51;;;;;;;7.18;2.60;;;;;;;24.39;55.02;101976.44;4988960;28;20038;-65
2022/07/04 10:05:28;;;;;;;8.65;2.53;;;;;;;23.69;55.33;101981.78;4970902;28;20048;-64
2022/07/04 10:07:56;;;;;;;7.57;2.90;;;;;;;24.02;56.12;101972.06;4990209;28;20042;-64
2022/07/04 10:10:27;;;;;;;10.43;3.65;;;;;;;23.30;56.74;101974.91;4989425;28;20152;-65
2022/07/04 10:12:54;;;;;;;8.23;3.05;;;;;;;24.13;56.25;101964.66;4971330;28;20073;-65
2022/07/04 10:15:21;;;;;;;6.70;3.65;;;;;;;24.66;53.86;101967.25;4972028;28;20045;-65
2022/07/04 10:17:46;;;;;;;8.15;3.47;;;;;;;25.12;53.81;101958.81;4988858;28;20038;-64
2022/07/04 10:20:12;;;;;;;9.85;3.33;;;;;;;25.16;52.94;101957.47;4988440;28;20099;-65
2022/07/04 10:22:38;;;;;;;11.10;3.88;;;;;;;24.74;55.16;101966.44;4989414;28;20134;-64
2022/07/04 10:25:09;;;;;;;8.75;3.40;;;;;;;24.45;53.82;101956.75;4989091;28;21028;-65
2022/07/04 10:27:35;;;;;;;8.50;3.35;;;;;;;24.36;54.24;101954.97;4990158;28;20073;-65
2022/07/04 10:30:04;;;;;;;7.78;3.05;;;;;;;23.80;55.24;101963.50;4988753;28;20041;-65
2022/07/04 10:32:30;;;;;;;9.10;3.72;;;;;;;24.76;58.06;101958.97;4989350;28;20041;-64
2022/07/04 10:34:56;;;;;;;11.43;4.28;;;;;;;24.51;55.43;101947.91;4970314;28;20077;-64
2022/07/04 10:37:21;;;;;;;13.25;4.00;;;;;;;24.17;57.20;101956.00;4981975;28;21045;-65
2022/07/04 10:39:48;;;;;;;9.32;4.05;;;;;;;25.27;55.01;101954.41;4984196;28;20080;-65
2022/07/04 10:42:26;;;;;;;10.57;3.95;;;;;;;25.80;54.48;101950.41;4984348;28;20080;-65
2022/07/04 10:44:52;;;;;;;12.25;3.70;;;;;;;26.31;52.27;101945.63;4969405;28;20136;-65
2022/07/04 10:47:27;;;;;;;8.30;4.18;;;;;;;26.54;50.77;101949.34;4986383;28;20046;-65
2022/07/04 10:49:53;;;;;;;6.45;3.67;;;;;;;25.74;54.32;101946.47;4977111;28;20128;-65
2022/07/04 10:52:18;;;;;;;9.85;4.13;;;;;;;24.87;55.04;101953.22;4965340;28;20111;-65
2022/07/04 10:54:45;;;;;;;11.45;4.22;;;;;;;24.33;57.23;101965.31;4982083;28;20029;-65
2022/07/04 10:57:24;;;;;;;8.63;3.38;;;;;;;24.73;56.49;101946.50;4981417;28;20042;-64
2022/07/04 10:59:56;;;;;;;8.82;3.47;;;;;;;24.60;55.71;101950.66;4985080;28;20045;-64
2022/07/04 11:02:29;;;;;;;8.70;3.28;;;;;;;25.00;55.53;101944.53;4987547;28;20049;-65
2022/07/04 11:04:55;;;;;;;7.53;3.22;;;;;;;25.00;55.24;101947.28;4985622;28;20470;-65
2022/07/04 11:07:30;;;;;;;46.83;8.88;;;;;;;25.42;53.55;101941.81;4969232;28;20057;-65
2022/07/04 11:10:33;;;;;;;7.60;3.08;;;;;;;25.78;50.72;101938.81;4987078;28;20068;-64
2022/07/04 11:12:56;;;;;;;11.20;3.97;;;;;;;25.74;50.16;101938.25;4969256;28;20045;-65
2022/07/04 11:15:28;;;;;;;9.95;3.28;;;;;;;26.06;52.29;101926.50;4990195;28;20046;-64
2022/07/04 11:17:57;;;;;;;6.40;2.75;;;;;;;25.64;51.60;101931.25;4987516;28;20050;-65
2022/07/04 11:20:25;;;;;;;11.65;3.00;;;;;;;24.84;51.15;101931.69;4970565;28;20123;-65
2022/07/04 11:22:50;;;;;;;10.75;2.65;;;;;;;24.84;51.10;101931.69;4988272;28;20053;-64
2022/07/04 11:25:16;;;;;;;6.10;2.30;;;;;;;24.05;50.62;101943.66;4988176;28;20037;-66
2022/07/04 11:27:42;;;;;;;14.45;3.65;;;;;;;24.15;51.00;101936.22;4988659;28;20519;-64
2022/07/04 11:30:09;;;;;;;6.95;2.70;;;;;;;24.19;51.89;101931.28;4953858;28;20044;-64
2022/07/04 11:32:37;;;;;;;5.15;2.10;;;;;;;24.80;52.28;101931.19;4970650;28;20060;-65